Hayase Maru — JD2583 — position and weather

sailwx.info

Track history (hours):
 
Tides and Currents Weather Stations Pressure Air Temp Water Temp Dewpoint Dewpoint Depression Visibility Wind Speed Wind Dir Waves Ship Positions

Hayase Maru

Last reported at 2014-Sep-12 09:31 UTC. Time now 2014-Sep-16 23:31 UTC.
Position N 35°07' E 139°42'.

Length 73 m; draft 4.1 m.

Type: Ship. MMSI: 431000395.

Date/timePositionNaut miles runAvg speedWind from/ knotsBaromVisibWave heightAir tempDewpointWater temp
2014-Sep-12 09:31N 35°07' E 139°42'1010.2
2014-Sep-12 08:33N 35°16' E 139°45'1010.0
2014-Sep-12 07:33N 35°26' E 139°43'5 5.0
2014-Sep-12 06:33N 35°31' E 139°45'0 0.0
2014-Sep-12 05:31N 35°31' E 139°45'0 0.0
2014-Sep-12 04:31N 35°31' E 139°45'0 0.0
2014-Sep-12 03:31N 35°31' E 139°45'0 0.0
2014-Sep-12 02:31N 35°31' E 139°45'0 0.0
2014-Sep-12 01:31N 35°31' E 139°45'0 0.0
2014-Sep-12 00:31N 35°31' E 139°45'0 0.0
2014-Sep-11 23:28N 35°31' E 139°45'0 0.0
2014-Sep-11 22:32N 35°31' E 139°45'3 3.0
2014-Sep-11 21:22N 35°29' E 139°49'0 0.0
2014-Sep-11 20:28N 35°29' E 139°49'6 6.5
2014-Sep-11 19:33N 35°24' E 139°46'1211.9
2014-Sep-11 18:33N 35°12' E 139°47'  
2014-Sep-07 17:32N 34°48' E 139°09'2010.1
2014-Sep-07 15:33N 35°00' E 139°28'1110.8
2014-Sep-07 14:33N 35°06' E 139°39'1111.0
2014-Sep-07 13:33N 35°16' E 139°46'10 9.7
2014-Sep-07 12:33N 35°25' E 139°45'7 5.1
2014-Sep-07 11:14N 35°21' E 139°51'0 0.0
2014-Sep-07 08:24N 35°21' E 139°51'0 0.0
2014-Sep-07 07:28N 35°21' E 139°51'0 0.0
2014-Sep-07 06:29N 35°21' E 139°51'0 0.1
2014-Sep-07 05:33N 35°21' E 139°51'0 0.0
2014-Sep-07 04:32N 35°21' E 139°51'0 0.0
2014-Sep-07 03:33N 35°21' E 139°51'0 0.0
2014-Sep-07 02:29N 35°21' E 139°51'0 0.1
2014-Sep-07 01:21N 35°21' E 139°51'0 0.1
2014-Sep-07 00:32N 35°21' E 139°51'0 0.1
2014-Sep-06 23:25N 35°21' E 139°51'0 0.4
2014-Sep-06 22:30N 35°21' E 139°51'0 0.0
2014-Sep-06 21:33N 35°21' E 139°51'0 0.0
2014-Sep-06 20:30N 35°21' E 139°51'0 0.4
2014-Sep-06 19:31N 35°22' E 139°51'0 0.0
2014-Sep-06 18:28N 35°22' E 139°51'0 0.0
2014-Sep-06 17:28N 35°22' E 139°51'0 0.0
2014-Sep-06 16:13N 35°22' E 139°51'0 0.0
2014-Sep-06 15:25N 35°22' E 139°51'0 0.0
2014-Sep-06 14:28N 35°22' E 139°51'0 0.0
2014-Sep-06 13:28N 35°22' E 139°51'0 0.0
2014-Sep-06 12:31N 35°22' E 139°51'0 0.0
2014-Sep-06 11:28N 35°22' E 139°51'0 0.0
2014-Sep-06 10:31N 35°22' E 139°51'0 0.0
2014-Sep-06 07:22N 35°22' E 139°51'0 0.0
2014-Sep-06 06:22N 35°22' E 139°51'0 0.0
2014-Sep-06 05:31N 35°22' E 139°51'2 1.7
2014-Sep-06 04:31N 35°22' E 139°49'0 0.1
2014-Sep-06 03:31N 35°22' E 139°49'0 0.0
2014-Sep-06 02:31N 35°22' E 139°49'0 0.1
2014-Sep-06 01:28N 35°22' E 139°49'0 0.0
2014-Sep-06 00:31N 35°22' E 139°49'0 0.0
2014-Sep-05 23:31N 35°22' E 139°49'0 0.0
2014-Sep-05 22:31N 35°22' E 139°49'0 0.0
2014-Sep-05 21:31N 35°22' E 139°49'0 0.0
2014-Sep-05 20:28N 35°22' E 139°49'0 0.1
2014-Sep-05 19:31N 35°22' E 139°49'0 0.0
2014-Sep-05 18:31N 35°22' E 139°49'0 0.0
2014-Sep-05 17:31N 35°22' E 139°49'0 0.0
2014-Sep-05 16:31N 35°22' E 139°49'0 0.0
2014-Sep-05 15:31N 35°22' E 139°49'0 0.0
2014-Sep-05 14:31N 35°22' E 139°49'0 0.0
2014-Sep-05 13:31N 35°22' E 139°49'0 0.0
2014-Sep-05 12:31N 35°22' E 139°49'0 0.0
2014-Sep-05 11:31N 35°22' E 139°49'0 0.1
2014-Sep-05 10:31N 35°22' E 139°49'8 8.7
2014-Sep-05 09:33N 35°30' E 139°52'8 7.7
2014-Sep-05 08:33N 35°37' E 139°48'0 0.0
2014-Sep-05 07:33N 35°37' E 139°48'0 0.0
2014-Sep-05 06:27N 35°37' E 139°48'0 0.0
2014-Sep-05 05:33N 35°37' E 139°48'0 0.0
2014-Sep-05 04:30N 35°37' E 139°48'0 0.0
2014-Sep-05 03:33N 35°37' E 139°48'0 0.0
2014-Sep-05 02:30N 35°37' E 139°48'0 0.0
2014-Sep-05 01:33N 35°37' E 139°48'0 0.1
2014-Sep-05 00:30N 35°37' E 139°48'0 0.0
2014-Sep-04 23:33N 35°37' E 139°48'4 4.5
2014-Sep-04 22:33N 35°35' E 139°52'1 0.7
2014-Sep-04 21:30N 35°34' E 139°53'0 0.0
2014-Sep-04 20:30N 35°34' E 139°53'0 0.0
2014-Sep-04 19:30N 35°34' E 139°53'0 0.0
2014-Sep-04 18:33N 35°34' E 139°53'0 0.0
2014-Sep-04 17:27N 35°34' E 139°53'0 0.0
2014-Sep-04 16:33N 35°34' E 139°53'0 0.0
2014-Sep-04 15:33N 35°34' E 139°53'0 0.0
2014-Sep-04 14:33N 35°34' E 139°53'0 0.0
2014-Sep-04 13:30N 35°34' E 139°53'4 3.8
2014-Sep-04 12:33N 35°31' E 139°52'1111.1
2014-Sep-04 11:33N 35°21' E 139°45'1110.6
2014-Sep-04 10:33N 35°11' E 139°47'1110.8
2014-Sep-04 09:33N 35°00' E 139°44'13 9.2
2014-Sep-04 08:09N 34°53' E 139°57'6 9.2
2014-Sep-04 07:32N 34°56' E 140°03'9 9.3
2014-Sep-04 06:33N 35°01' E 140°12'18 8.3
2014-Sep-04 04:22N 35°13' E 140°29'910.6
2014-Sep-04 03:30N 35°21' E 140°35'1010.8
2014-Sep-04 02:33N 35°29' E 140°43'1111.1
2014-Sep-04 01:32N 35°38' E 140°51'14 9.5
2014-Sep-04 00:06N 35°51' E 140°49'610.8
2014-Sep-03 23:33N 35°56' E 140°45'4 3.8
2014-Sep-03 22:28N 35°56' E 140°40'0 0.1
2014-Sep-03 21:33N 35°56' E 140°40'0 0.1
2014-Sep-03 20:33N 35°56' E 140°40'0 0.1
2014-Sep-03 19:34N 35°56' E 140°40'0 0.0
2014-Sep-03 18:28N 35°56' E 140°40'0 0.0
2014-Sep-03 17:32N 35°56' E 140°40'0 0.1
2014-Sep-03 16:27N 35°56' E 140°40'0 0.1
2014-Sep-03 15:21N 35°56' E 140°40'0 0.0
2014-Sep-03 14:34N 35°56' E 140°40'0 0.0
2014-Sep-03 13:32N 35°56' E 140°40'0 0.1
2014-Sep-03 12:26N 35°55' E 140°40'0 0.0
2014-Sep-03 11:32N 35°55' E 140°40'0 0.0
2014-Sep-03 10:17N 35°55' E 140°40'0 0.0
2014-Sep-03 09:08N 35°55' E 140°40'0 0.0
2014-Sep-03 08:11N 35°55' E 140°40'0 0.0
2014-Sep-03 07:32N 35°55' E 140°40'0 0.0
2014-Sep-03 06:17N 35°55' E 140°40'0 0.1
2014-Sep-03 03:33N 35°55' E 140°40'  
Track history (hours):
 
Tides and Currents Weather Stations Pressure Air Temp Water Temp Dewpoint Dewpoint Depression Visibility Wind Speed Wind Dir Waves Ship Positions

Hayase Maru

Last reported at 2014-Sep-12 09:31 UTC. Time now 2014-Sep-16 23:31 UTC.
Position N 35°07' E 139°42'.

Length 73 m; draft 4.1 m.

Type: Ship. MMSI: 431000395.

Date/timePositionNaut miles runAvg speedWind from/ knotsBaromVisibWave heightAir tempDewpointWater temp
2014-Sep-12 09:31N 35°07' E 139°42'1010.2
2014-Sep-12 08:33N 35°16' E 139°45'1010.0
2014-Sep-12 07:33N 35°26' E 139°43'5 5.0
2014-Sep-12 06:33N 35°31' E 139°45'0 0.0
2014-Sep-12 05:31N 35°31' E 139°45'0 0.0
2014-Sep-12 04:31N 35°31' E 139°45'0 0.0
2014-Sep-12 03:31N 35°31' E 139°45'0 0.0
2014-Sep-12 02:31N 35°31' E 139°45'0 0.0
2014-Sep-12 01:31N 35°31' E 139°45'0 0.0
2014-Sep-12 00:31N 35°31' E 139°45'0 0.0
2014-Sep-11 23:28N 35°31' E 139°45'0 0.0
2014-Sep-11 22:32N 35°31' E 139°45'3 3.0
2014-Sep-11 21:22N 35°29' E 139°49'0 0.0
2014-Sep-11 20:28N 35°29' E 139°49'6 6.5
2014-Sep-11 19:33N 35°24' E 139°46'1211.9
2014-Sep-11 18:33N 35°12' E 139°47'  
2014-Sep-07 17:32N 34°48' E 139°09'2010.1
2014-Sep-07 15:33N 35°00' E 139°28'1110.8
2014-Sep-07 14:33N 35°06' E 139°39'1111.0
2014-Sep-07 13:33N 35°16' E 139°46'10 9.7
2014-Sep-07 12:33N 35°25' E 139°45'7 5.1
2014-Sep-07 11:14N 35°21' E 139°51'0 0.0
2014-Sep-07 08:24N 35°21' E 139°51'0 0.0
2014-Sep-07 07:28N 35°21' E 139°51'0 0.0
2014-Sep-07 06:29N 35°21' E 139°51'0 0.1
2014-Sep-07 05:33N 35°21' E 139°51'0 0.0
2014-Sep-07 04:32N 35°21' E 139°51'0 0.0
2014-Sep-07 03:33N 35°21' E 139°51'0 0.0
2014-Sep-07 02:29N 35°21' E 139°51'0 0.1
2014-Sep-07 01:21N 35°21' E 139°51'0 0.1
2014-Sep-07 00:32N 35°21' E 139°51'0 0.1
2014-Sep-06 23:25N 35°21' E 139°51'0 0.4
2014-Sep-06 22:30N 35°21' E 139°51'0 0.0
2014-Sep-06 21:33N 35°21' E 139°51'0 0.0
2014-Sep-06 20:30N 35°21' E 139°51'0 0.4
2014-Sep-06 19:31N 35°22' E 139°51'0 0.0
2014-Sep-06 18:28N 35°22' E 139°51'0 0.0
2014-Sep-06 17:28N 35°22' E 139°51'0 0.0
2014-Sep-06 16:13N 35°22' E 139°51'0 0.0
2014-Sep-06 15:25N 35°22' E 139°51'0 0.0
2014-Sep-06 14:28N 35°22' E 139°51'0 0.0
2014-Sep-06 13:28N 35°22' E 139°51'0 0.0
2014-Sep-06 12:31N 35°22' E 139°51'0 0.0
2014-Sep-06 11:28N 35°22' E 139°51'0 0.0
2014-Sep-06 10:31N 35°22' E 139°51'0 0.0
2014-Sep-06 07:22N 35°22' E 139°51'0 0.0
2014-Sep-06 06:22N 35°22' E 139°51'0 0.0
2014-Sep-06 05:31N 35°22' E 139°51'2 1.7
2014-Sep-06 04:31N 35°22' E 139°49'0 0.1
2014-Sep-06 03:31N 35°22' E 139°49'0 0.0
2014-Sep-06 02:31N 35°22' E 139°49'0 0.1
2014-Sep-06 01:28N 35°22' E 139°49'0 0.0
2014-Sep-06 00:31N 35°22' E 139°49'0 0.0
2014-Sep-05 23:31N 35°22' E 139°49'0 0.0
2014-Sep-05 22:31N 35°22' E 139°49'0 0.0
2014-Sep-05 21:31N 35°22' E 139°49'0 0.0
2014-Sep-05 20:28N 35°22' E 139°49'0 0.1
2014-Sep-05 19:31N 35°22' E 139°49'0 0.0
2014-Sep-05 18:31N 35°22' E 139°49'0 0.0
2014-Sep-05 17:31N 35°22' E 139°49'0 0.0
2014-Sep-05 16:31N 35°22' E 139°49'0 0.0
2014-Sep-05 15:31N 35°22' E 139°49'0 0.0
2014-Sep-05 14:31N 35°22' E 139°49'0 0.0
2014-Sep-05 13:31N 35°22' E 139°49'0 0.0
2014-Sep-05 12:31N 35°22' E 139°49'0 0.0
2014-Sep-05 11:31N 35°22' E 139°49'0 0.1
2014-Sep-05 10:31N 35°22' E 139°49'8 8.7
2014-Sep-05 09:33N 35°30' E 139°52'8 7.7
2014-Sep-05 08:33N 35°37' E 139°48'0 0.0
2014-Sep-05 07:33N 35°37' E 139°48'0 0.0
2014-Sep-05 06:27N 35°37' E 139°48'0 0.0
2014-Sep-05 05:33N 35°37' E 139°48'0 0.0
2014-Sep-05 04:30N 35°37' E 139°48'0 0.0
2014-Sep-05 03:33N 35°37' E 139°48'0 0.0
2014-Sep-05 02:30N 35°37' E 139°48'0 0.0
2014-Sep-05 01:33N 35°37' E 139°48'0 0.1
2014-Sep-05 00:30N 35°37' E 139°48'0 0.0
2014-Sep-04 23:33N 35°37' E 139°48'4 4.5
2014-Sep-04 22:33N 35°35' E 139°52'1 0.7
2014-Sep-04 21:30N 35°34' E 139°53'0 0.0
2014-Sep-04 20:30N 35°34' E 139°53'0 0.0
2014-Sep-04 19:30N 35°34' E 139°53'0 0.0
2014-Sep-04 18:33N 35°34' E 139°53'0 0.0
2014-Sep-04 17:27N 35°34' E 139°53'0 0.0
2014-Sep-04 16:33N 35°34' E 139°53'0 0.0
2014-Sep-04 15:33N 35°34' E 139°53'0 0.0
2014-Sep-04 14:33N 35°34' E 139°53'0 0.0
2014-Sep-04 13:30N 35°34' E 139°53'4 3.8
2014-Sep-04 12:33N 35°31' E 139°52'1111.1
2014-Sep-04 11:33N 35°21' E 139°45'1110.6
2014-Sep-04 10:33N 35°11' E 139°47'1110.8
2014-Sep-04 09:33N 35°00' E 139°44'13 9.2
2014-Sep-04 08:09N 34°53' E 139°57'6 9.2
2014-Sep-04 07:32N 34°56' E 140°03'9 9.3
2014-Sep-04 06:33N 35°01' E 140°12'18 8.3
2014-Sep-04 04:22N 35°13' E 140°29'910.6
2014-Sep-04 03:30N 35°21' E 140°35'1010.8
2014-Sep-04 02:33N 35°29' E 140°43'1111.1
2014-Sep-04 01:32N 35°38' E 140°51'14 9.5
2014-Sep-04 00:06N 35°51' E 140°49'610.8
2014-Sep-03 23:33N 35°56' E 140°45'4 3.8
2014-Sep-03 22:28N 35°56' E 140°40'0 0.1
2014-Sep-03 21:33N 35°56' E 140°40'0 0.1
2014-Sep-03 20:33N 35°56' E 140°40'0 0.1
2014-Sep-03 19:34N 35°56' E 140°40'0 0.0
2014-Sep-03 18:28N 35°56' E 140°40'0 0.0
2014-Sep-03 17:32N 35°56' E 140°40'0 0.1
2014-Sep-03 16:27N 35°56' E 140°40'0 0.1
2014-Sep-03 15:21N 35°56' E 140°40'0 0.0
2014-Sep-03 14:34N 35°56' E 140°40'0 0.0
2014-Sep-03 13:32N 35°56' E 140°40'0 0.1
2014-Sep-03 12:26N 35°55' E 140°40'0 0.0
2014-Sep-03 11:32N 35°55' E 140°40'0 0.0
2014-Sep-03 10:17N 35°55' E 140°40'0 0.0
2014-Sep-03 09:08N 35°55' E 140°40'0 0.0
2014-Sep-03 08:11N 35°55' E 140°40'0 0.0
2014-Sep-03 07:32N 35°55' E 140°40'0 0.0
2014-Sep-03 06:17N 35°55' E 140°40'0 0.1
2014-Sep-03 03:33N 35°55' E 140°40'  

Dump ship's entire track history